Time;durP1;ratioP1;P1;durP2;ratioP2;P2;SDS_P1;SDS_P2;PMS_P1;PMS_P2;Temp;Humidity;BMP_temperature;BMP_pressure;BME280_temperature;BME280_humidity;BME280_pressure;Samples;Min_cycle;Max_cycle;Signal;HPM_P1;HPM_P2
2024/03/21 00:03:04;;;;;;;9.90;3.00;;;;;;;13.68;95.49;101489.03;10441816;28;21026;-76
2024/03/21 00:08:27;;;;;;;8.00;3.05;;;;;;;13.62;94.87;101504.88;10475761;28;20049;-77
2024/03/21 00:13:49;;;;;;;5.68;2.60;;;;;;;13.40;92.19;101480.66;10458479;28;20081;-76
2024/03/21 00:19:13;;;;;;;8.02;3.13;;;;;;;13.17;90.84;101487.38;10462152;28;20060;-77
2024/03/21 00:24:37;;;;;;;6.60;2.80;;;;;;;13.16;91.84;101486.47;10446801;28;20053;-77
2024/03/21 00:30:00;;;;;;;7.80;2.35;;;;;;;13.39;92.03;101478.88;10433546;28;20041;-76
2024/03/21 00:35:25;;;;;;;5.15;2.90;;;;;;;13.55;90.46;101469.41;10434165;28;20049;-76
2024/03/21 00:40:48;;;;;;;6.57;2.85;;;;;;;13.64;90.90;101490.78;10476346;28;20044;-76
2024/03/21 00:46:11;;;;;;;6.68;3.05;;;;;;;13.64;91.48;101485.47;10447824;28;20485;-76
2024/03/21 00:51:36;;;;;;;4.25;2.40;;;;;;;13.79;90.98;101485.66;10433345;28;20056;-76
2024/03/21 00:56:58;;;;;;;4.43;2.72;;;;;;;14.06;88.04;101487.81;10447143;28;20052;-77
2024/03/21 01:02:22;;;;;;;5.35;2.30;;;;;;;14.08;88.29;101475.44;10447131;28;20052;-76
2024/03/21 01:07:47;;;;;;;5.72;2.50;;;;;;;14.15;91.04;101485.28;10437159;28;20041;-76
2024/03/21 01:13:10;;;;;;;7.22;2.95;;;;;;;14.21;92.65;101479.16;10432620;28;20080;-76
2024/03/21 01:18:35;;;;;;;4.43;2.50;;;;;;;14.22;94.32;101484.47;10474458;28;20053;-76
2024/03/21 01:24:00;;;;;;;6.85;2.72;;;;;;;14.30;96.51;101473.97;10445951;28;20051;-76
2024/03/21 01:29:23;;;;;;;5.95;2.20;;;;;;;14.29;98.49;101473.06;10446977;28;20044;-77
2024/03/21 01:34:45;;;;;;;5.20;2.20;;;;;;;14.20;100.00;101480.91;10419241;28;20441;-77
2024/03/21 01:40:12;;;;;;;4.55;2.47;;;;;;;14.01;100.00;101470.94;10446303;28;20048;-77
2024/03/21 01:45:37;;;;;;;4.35;2.00;;;;;;;13.98;100.00;101462.06;10418933;28;20041;-77
2024/03/21 01:51:00;;;;;;;3.78;2.00;;;;;;;13.98;100.00;101459.41;10421997;28;20056;-78
2024/03/21 01:56:26;;;;;;;4.47;2.00;;;;;;;14.07;100.00;101459.50;10450649;28;20047;-77
2024/03/21 02:01:50;;;;;;;5.10;2.08;;;;;;;14.25;100.00;101452.63;10444982;28;20056;-77
2024/03/21 02:07:16;;;;;;;7.65;2.22;;;;;;;14.28;100.00;101459.75;10429611;28;20600;-77
2024/03/21 02:12:47;;;;;;;6.70;2.15;;;;;;;14.39;100.00;101438.66;10445776;28;20493;-78
2024/03/21 02:18:10;;;;;;;9.15;2.40;;;;;;;14.43;100.00;101461.75;10445834;28;20128;-77
2024/03/21 02:23:34;;;;;;;9.77;3.20;;;;;;;14.30;99.08;101461.56;10432876;28;20057;-77
2024/03/21 02:28:57;;;;;;;5.72;2.55;;;;;;;13.89;97.41;101452.19;10444987;28;20132;-77
2024/03/21 02:34:19;;;;;;;5.90;2.75;;;;;;;13.72;95.78;101475.84;10446107;28;20458;-77
2024/03/21 02:39:46;;;;;;;7.93;3.00;;;;;;;13.77;92.75;101474.16;10431916;28;20140;-77
2024/03/21 02:45:09;;;;;;;8.85;3.00;;;;;;;13.89;89.74;101484.94;10445645;28;20037;-77
2024/03/21 02:50:33;;;;;;;7.80;3.08;;;;;;;13.98;91.56;101483.28;10445350;28;20114;-76
2024/03/21 02:55:57;;;;;;;17.15;3.47;;;;;;;13.97;95.23;101490.34;10478366;28;20488;-77
2024/03/21 03:01:20;;;;;;;5.88;3.08;;;;;;;13.85;91.05;101492.81;10439258;28;20489;-78
2024/03/21 03:06:43;;;;;;;7.57;2.60;;;;;;;13.46;85.25;101496.66;10449488;28;20051;-77
2024/03/21 03:12:07;;;;;;;3.70;2.50;;;;;;;13.45;83.43;101494.03;10438524;28;20045;-78
2024/03/21 03:17:29;;;;;;;6.22;3.20;;;;;;;13.54;84.35;101497.69;10452889;28;20041;-77
2024/03/21 03:22:53;;;;;;;9.35;3.00;;;;;;;13.60;81.11;101501.28;10465860;28;20179;-77
2024/03/21 03:28:17;;;;;;;7.72;3.28;;;;;;;13.33;83.32;101507.06;10437843;28;20053;-78
2024/03/21 03:39:19;;;;;;;11.27;3.53;;;;;;;13.18;94.75;101499.78;10451857;28;20049;-78
2024/03/21 03:44:43;;;;;;;7.85;3.25;;;;;;;13.22;94.34;101504.25;10450657;28;20136;-78
2024/03/21 03:50:06;;;;;;;5.60;3.05;;;;;;;13.24;93.69;101507.81;10450846;28;20076;-77
2024/03/21 03:55:29;;;;;;;6.90;3.78;;;;;;;13.38;94.38;101508.06;10434218;28;20052;-77
2024/03/21 04:00:58;;;;;;;8.93;3.65;;;;;;;13.61;95.97;101503.09;10442903;28;20091;-77
2024/03/21 04:06:20;;;;;;;7.30;3.80;;;;;;;13.65;96.39;101502.28;10447933;28;20464;-77
2024/03/21 04:11:43;;;;;;;13.38;4.32;;;;;;;13.63;96.75;101507.56;10449490;28;20040;-78
2024/03/21 04:17:12;;;;;;;9.85;3.63;;;;;;;13.79;96.13;101508.66;10436488;28;20440;-77
2024/03/21 04:22:34;;;;;;;13.35;4.28;;;;;;;13.90;95.66;101501.75;10436149;28;20069;-77
2024/03/21 04:27:57;;;;;;;10.93;3.85;;;;;;;13.84;95.49;101513.19;10433530;28;20051;-78
2024/03/21 04:33:22;;;;;;;11.13;4.35;;;;;;;13.91;94.87;101516.81;10435899;28;20789;-78
2024/03/21 04:38:44;;;;;;;10.68;4.32;;;;;;;14.01;94.01;101515.16;10435665;28;20048;-77
2024/03/21 04:44:07;;;;;;;9.95;4.38;;;;;;;14.23;92.66;101525.22;10435107;28;20049;-77
2024/03/21 04:49:34;;;;;;;8.95;3.83;;;;;;;14.25;94.10;101528.75;10448906;28;20060;-77
2024/03/21 04:54:57;;;;;;;10.23;3.67;;;;;;;14.66;89.31;101535.50;10433285;28;20045;-78
2024/03/21 05:00:20;;;;;;;9.68;3.60;;;;;;;14.89;84.96;101535.78;10446834;28;20489;-78
2024/03/21 05:05:44;;;;;;;10.55;3.55;;;;;;;14.58;77.72;101528.31;10461619;28;20504;-77
2024/03/21 05:11:07;;;;;;;9.93;3.50;;;;;;;14.24;73.37;101532.31;10433979;28;20049;-77
2024/03/21 05:16:30;;;;;;;7.50;3.75;;;;;;;14.43;69.77;101549.41;10451441;28;20064;-78
2024/03/21 05:21:54;;;;;;;6.88;3.60;;;;;;;14.78;66.92;101558.66;10447360;28;20053;-78
2024/03/21 05:27:19;;;;;;;10.93;3.88;;;;;;;15.02;68.24;101552.75;10419888;28;20153;-77
2024/03/21 05:32:42;;;;;;;9.50;3.75;;;;;;;15.03;66.71;101550.06;10432964;28;20057;-78
2024/03/21 05:38:06;;;;;;;8.77;3.20;;;;;;;14.96;67.00;101542.03;10440330;28;20057;-77
2024/03/21 05:43:28;;;;;;;6.20;2.90;;;;;;;14.89;65.52;101532.22;10447175;28;20081;-78
2024/03/21 05:48:51;;;;;;;9.07;3.58;;;;;;;15.29;60.70;101557.44;10444631;28;20084;-77
2024/03/21 05:54:15;;;;;;;6.95;2.97;;;;;;;15.53;58.09;101542.59;10438869;28;20489;-79
2024/03/21 05:59:38;;;;;;;13.40;5.03;;;;;;;16.96;50.98;101546.00;10441334;28;20135;-79
2024/03/21 06:05:00;;;;;;;9.75;3.90;;;;;;;16.22;53.27;101553.69;10417440;28;20045;-79
2024/03/21 06:10:25;;;;;;;5.05;3.10;;;;;;;15.59;52.57;101552.41;10432365;28;20044;-79
2024/03/21 06:15:47;;;;;;;9.07;3.78;;;;;;;15.14;53.66;101567.06;10451113;28;20045;-78
2024/03/21 06:21:10;;;;;;;6.32;3.58;;;;;;;17.79;45.77;101550.50;10445075;28;20079;-78
2024/03/21 06:26:34;;;;;;;5.78;2.88;;;;;;;19.74;42.42;101561.13;10435114;28;20049;-79
2024/03/21 06:31:56;;;;;;;7.45;3.08;;;;;;;21.66;38.09;101569.41;10469438;28;20041;-79
2024/03/21 06:37:19;;;;;;;8.02;3.10;;;;;;;21.05;39.89;101564.97;10454851;28;20562;-78
2024/03/21 06:42:43;;;;;;;10.75;3.55;;;;;;;22.34;37.33;101578.03;10453947;28;20382;-79
2024/03/21 06:48:08;;;;;;;6.97;3.33;;;;;;;19.15;41.95;101588.34;10452610;28;20048;-79
2024/03/21 06:53:31;;;;;;;5.00;2.88;;;;;;;17.88;44.72;101593.25;10476150;28;20048;-78
2024/03/21 06:58:55;;;;;;;7.15;4.20;;;;;;;19.29;43.41;101590.94;10466450;28;20427;-79
2024/03/21 07:04:18;;;;;;;10.93;4.40;;;;;;;20.32;38.74;101587.34;10454481;28;20037;-78
2024/03/21 07:09:40;;;;;;;14.48;8.93;;;;;;;19.30;41.49;101590.91;10453461;28;20745;-79
2024/03/21 07:15:06;;;;;;;9.60;4.20;;;;;;;18.47;43.92;101592.22;10460916;28;20048;-80
2024/03/21 07:20:29;;;;;;;7.95;5.38;;;;;;;21.82;39.10;101600.47;10454859;28;20394;-80
2024/03/21 07:25:51;;;;;;;5.45;3.60;;;;;;;22.74;36.22;101613.13;10438674;28;20140;-80
2024/03/21 07:31:15;;;;;;;5.65;3.10;;;;;;;21.65;37.98;101616.00;10453303;28;20056;-79
2024/03/21 07:36:38;;;;;;;5.38;3.03;;;;;;;20.45;40.51;101613.16;10439706;28;20065;-79
2024/03/21 07:42:00;;;;;;;9.77;4.10;;;;;;;18.96;43.48;101629.50;10439220;28;20067;-79
2024/03/21 07:47:31;;;;;;;7.82;3.42;;;;;;;18.27;43.56;101628.81;10422223;28;20157;-78
2024/03/21 07:52:54;;;;;;;9.20;3.60;;;;;;;21.41;38.99;101639.66;10436069;28;20045;-78
2024/03/21 07:58:18;;;;;;;7.68;3.45;;;;;;;19.83;40.30;101629.81;10451407;28;20439;-78
2024/03/21 08:03:46;;;;;;;5.45;3.08;;;;;;;19.63;41.54;101639.81;10432385;28;20389;-77
2024/03/21 08:09:12;;;;;;;30.20;17.88;;;;;;;19.56;42.30;101625.56;10450252;28;20235;-77
2024/03/21 08:14:40;;;;;;;6.72;3.00;;;;;;;20.40;39.38;101631.09;10435302;28;20036;-78
2024/03/21 08:20:06;;;;;;;8.32;3.40;;;;;;;23.31;34.37;101619.91;10435305;28;20049;-78
2024/03/21 08:25:30;;;;;;;8.23;3.17;;;;;;;25.83;30.98;101629.94;10448777;28;20041;-78
2024/03/21 08:30:54;;;;;;;5.47;2.97;;;;;;;26.06;31.42;101611.97;10434846;28;20049;-77
2024/03/21 08:36:19;;;;;;;6.18;2.88;;;;;;;25.72;32.23;101617.69;10449576;28;20041;-78
2024/03/21 08:41:42;;;;;;;7.20;3.15;;;;;;;26.19;30.54;101640.38;10421572;28;20516;-78
2024/03/21 08:47:05;;;;;;;8.63;4.65;;;;;;;27.55;28.20;101638.03;10440518;28;20069;-77
2024/03/21 08:52:30;;;;;;;8.13;3.65;;;;;;;27.72;28.07;101651.78;10447941;28;20055;-77
2024/03/21 08:57:52;;;;;;;9.75;4.20;;;;;;;26.57;29.47;101622.81;10434993;28;20049;-78
2024/03/21 09:03:15;;;;;;;6.85;3.28;;;;;;;27.09;29.06;101645.25;10426275;28;20041;-77
2024/03/21 09:08:39;;;;;;;7.15;2.75;;;;;;;28.51;27.35;101638.41;10443191;28;20053;-76
2024/03/21 09:14:02;;;;;;;6.30;3.13;;;;;;;29.51;26.57;101629.22;10433756;28;20049;-76
2024/03/21 09:19:27;;;;;;;7.60;3.45;;;;;;;29.14;27.29;101658.19;10438233;28;20041;-77
2024/03/21 09:24:51;;;;;;;4.90;2.85;;;;;;;29.84;25.74;101656.59;10436247;28;20102;-81
2024/03/21 09:30:15;;;;;;;6.28;3.00;;;;;;;30.13;25.63;101657.88;10433566;28;20063;-81
2024/03/21 09:35:37;;;;;;;7.55;3.67;;;;;;;29.82;26.32;101669.41;10443951;28;20049;-77
2024/03/21 09:41:02;;;;;;;5.80;3.05;;;;;;;29.35;25.30;101658.13;10471676;28;20060;-78
2024/03/21 09:46:25;;;;;;;7.93;3.55;;;;;;;28.59;26.85;101648.06;10419635;28;20497;-78
2024/03/21 09:51:47;;;;;;;9.32;4.13;;;;;;;28.00;25.91;101659.66;10446758;28;20126;-78
2024/03/21 09:57:14;;;;;;;8.82;3.38;;;;;;;27.68;27.31;101655.59;10446584;28;20044;-77
2024/03/21 10:02:37;;;;;;;5.43;3.38;;;;;;;24.88;30.46;101640.09;10445837;28;20126;-78
2024/03/21 10:08:00;;;;;;;8.18;3.72;;;;;;;24.54;31.38;101654.59;10446212;28;20099;-77
2024/03/21 10:13:24;;;;;;;8.48;3.40;;;;;;;24.09;32.62;101658.50;10446927;28;20132;-76
2024/03/21 10:18:46;;;;;;;4.18;3.05;;;;;;;25.77;30.70;101660.81;10446883;28;20049;-76
2024/03/21 10:24:09;;;;;;;5.75;3.00;;;;;;;27.00;29.07;101666.41;10446905;28;20041;-76
2024/03/21 10:29:33;;;;;;;6.07;3.00;;;;;;;25.37;30.52;101658.47;10447026;28;20102;-76
2024/03/21 10:34:56;;;;;;;9.13;2.67;;;;;;;25.40;29.47;101667.34;10443445;28;20110;-76
2024/03/21 10:40:19;;;;;;;7.15;3.22;;;;;;;26.72;28.28;101661.97;10432389;28;20715;-76
2024/03/21 10:45:44;;;;;;;10.95;3.13;;;;;;;25.28;30.00;101654.22;10446321;28;20037;-77
2024/03/21 10:51:11;;;;;;;4.80;2.70;;;;;;;26.04;29.20;101643.66;10474170;28;20053;-76
2024/03/21 10:56:38;;;;;;;5.53;2.75;;;;;;;26.78;28.86;101634.66;10444364;28;20049;-76
2024/03/21 11:02:05;;;;;;;7.38;3.20;;;;;;;26.03;30.11;101632.88;10418110;28;20041;-76
2024/03/21 11:07:32;;;;;;;4.55;3.03;;;;;;;25.45;30.82;101623.06;10445731;28;20112;-76
2024/03/21 11:12:55;;;;;;;4.70;2.90;;;;;;;25.56;31.32;101616.38;10434083;28;20191;-77
2024/03/21 11:18:19;;;;;;;5.50;2.83;;;;;;;25.40;32.45;101605.16;10451989;28;20052;-76
2024/03/21 11:23:43;;;;;;;5.38;2.92;;;;;;;25.01;33.37;101588.38;10452202;28;20123;-76
2024/03/21 11:29:09;;;;;;;2.92;2.10;;;;;;;23.70;35.31;101593.81;10452965;28;20437;-76
2024/03/21 11:34:33;;;;;;;5.07;3.05;;;;;;;23.06;35.99;101605.22;10450186;28;20053;-76
2024/03/21 11:39:55;;;;;;;6.43;3.20;;;;;;;23.23;35.60;101594.97;10451773;28;20048;-75
2024/03/21 11:45:19;;;;;;;5.82;2.90;;;;;;;22.68;35.33;101600.66;10451211;28;20036;-76
2024/03/21 11:50:43;;;;;;;5.13;2.75;;;;;;;22.31;35.63;101591.56;10441811;28;20052;-76
2024/03/21 11:56:24;;;;;;;;;;;;;;;;;;;;;
2024/03/21 12:01:50;;;;;;;4.45;2.75;;;;;;;22.33;35.60;101585.19;10434034;28;20041;-76
2024/03/21 12:07:16;;;;;;;5.63;3.08;;;;;;;21.65;36.22;101568.53;10435574;28;20040;-76
2024/03/21 12:12:39;;;;;;;4.88;3.08;;;;;;;21.46;36.68;101559.84;10450641;28;20045;-77
2024/03/21 12:18:02;;;;;;;7.50;3.10;;;;;;;21.21;37.64;101565.63;10449571;28;20048;-77
2024/03/21 12:23:26;;;;;;;5.07;3.30;;;;;;;21.11;38.40;101566.66;10439665;28;20049;-77
2024/03/21 12:28:49;;;;;;;8.70;3.53;;;;;;;20.97;39.33;101559.69;10436418;28;20056;-80
2024/03/21 12:34:11;;;;;;;7.60;3.10;;;;;;;20.69;40.09;101556.50;10463790;28;20095;-77
2024/03/21 12:39:36;;;;;;;7.05;3.25;;;;;;;20.58;41.07;101553.09;10435840;28;20044;-76
2024/03/21 12:44:58;;;;;;;8.75;3.05;;;;;;;20.52;41.28;101544.22;10449736;28;20071;-78
2024/03/21 12:50:20;;;;;;;4.75;3.03;;;;;;;20.36;41.84;101556.94;10439479;28;20048;-77
2024/03/21 12:55:44;;;;;;;7.82;3.63;;;;;;;20.20;42.94;101552.63;10431547;28;20037;-77
2024/03/21 13:01:09;;;;;;;8.45;3.40;;;;;;;20.46;43.27;101555.94;10432035;28;20048;-76
2024/03/21 13:06:31;;;;;;;7.68;3.35;;;;;;;19.90;43.27;101553.81;10436032;28;20057;-77
2024/03/21 13:11:55;;;;;;;6.57;3.47;;;;;;;19.54;43.79;101544.34;10432476;28;20566;-76
2024/03/21 13:17:18;;;;;;;4.82;3.15;;;;;;;19.09;44.90;101549.13;10434045;28;20087;-76
2024/03/21 13:22:46;;;;;;;8.85;3.38;;;;;;;19.21;44.69;101537.44;10445141;28;20041;-76
2024/03/21 13:28:10;;;;;;;4.38;3.00;;;;;;;19.23;43.13;101532.09;10447311;28;20052;-76
2024/03/21 13:33:33;;;;;;;5.90;3.00;;;;;;;19.16;44.13;101531.25;10446979;28;20048;-76
2024/03/21 13:38:57;;;;;;;5.72;3.00;;;;;;;19.43;43.43;101524.75;10445723;28;20067;-76
2024/03/21 13:44:22;;;;;;;5.85;3.10;;;;;;;18.83;43.50;101543.06;10447285;28;20394;-77
2024/03/21 13:49:45;;;;;;;6.03;3.40;;;;;;;18.44;44.28;101545.91;10446233;28;20052;-76
2024/03/21 13:55:10;;;;;;;6.72;3.15;;;;;;;18.25;44.72;101547.72;10433879;28;20203;-75
2024/03/21 14:00:38;;;;;;;6.90;2.80;;;;;;;18.53;44.02;101545.84;10447475;28;20049;-75
2024/03/21 14:06:04;;;;;;;5.63;3.13;;;;;;;18.36;44.20;101535.22;10447308;28;20505;-76
2024/03/21 14:11:27;;;;;;;7.03;3.92;;;;;;;18.08;45.40;101538.88;10446808;28;20144;-75
2024/03/21 14:16:51;;;;;;;9.65;4.10;;;;;;;18.38;45.05;101535.22;10447132;28;20448;-75
2024/03/21 14:22:13;;;;;;;7.43;3.33;;;;;;;18.75;45.29;101541.31;10447036;28;20052;-76
2024/03/21 14:27:36;;;;;;;5.22;3.55;;;;;;;18.85;44.44;101524.28;10446736;28;20052;-76
2024/03/21 14:33:00;;;;;;;6.55;3.60;;;;;;;18.85;44.58;101524.28;10419975;28;20053;-80
2024/03/21 14:38:22;;;;;;;6.90;3.13;;;;;;;18.57;44.50;101516.44;10432561;28;20452;-76
2024/03/21 14:43:45;;;;;;;4.65;3.55;;;;;;;18.19;45.74;101513.00;10427553;28;20444;-76
2024/03/21 14:49:10;;;;;;;5.30;3.70;;;;;;;17.97;47.09;101522.88;10437856;28;20053;-76
2024/03/21 14:54:33;;;;;;;5.60;3.40;;;;;;;18.04;47.67;101513.97;10458119;28;20559;-76
2024/03/21 14:59:55;;;;;;;5.15;3.47;;;;;;;18.05;48.65;101515.72;10441600;28;20497;-77
2024/03/21 15:05:19;;;;;;;5.75;3.72;;;;;;;17.81;49.55;101515.78;10454958;28;20045;-76
2024/03/21 15:10:42;;;;;;;5.68;3.55;;;;;;;17.66;49.57;101519.34;10455018;28;20048;-76
2024/03/21 15:16:06;;;;;;;11.43;6.57;;;;;;;17.89;49.74;101519.34;10455080;28;20053;-76
2024/03/21 15:21:30;;;;;;;4.85;4.00;;;;;;;17.57;49.64;101513.13;10454703;28;20041;-76
2024/03/21 15:26:52;;;;;;;7.93;4.85;;;;;;;17.08;50.93;101514.00;10454268;28;20064;-77
2024/03/21 15:32:14;;;;;;;7.20;5.00;;;;;;;16.82;52.73;101509.50;10454655;28;20057;-77
2024/03/21 15:37:38;;;;;;;7.03;4.20;;;;;;;16.53;55.12;101515.66;10453272;28;20052;-77
2024/03/21 15:43:01;;;;;;;7.93;3.90;;;;;;;16.32;56.39;101512.88;10440131;28;20044;-77
2024/03/21 15:48:24;;;;;;;7.35;4.18;;;;;;;16.02;58.48;101510.06;10441404;28;20497;-78
2024/03/21 15:53:48;;;;;;;6.22;4.68;;;;;;;15.89;60.62;101503.78;10414673;28;20060;-76
2024/03/21 15:59:10;;;;;;;4.93;3.72;;;;;;;15.61;62.55;101513.38;10439137;28;20106;-77
2024/03/21 16:04:33;;;;;;;8.13;4.43;;;;;;;15.53;63.27;101507.09;10466983;28;20132;-77
2024/03/21 16:09:57;;;;;;;11.70;5.25;;;;;;;15.52;64.99;101513.28;10451925;28;20057;-76
2024/03/21 16:15:19;;;;;;;9.43;6.03;;;;;;;15.22;67.98;101505.94;10451493;28;20060;-76
2024/03/21 16:20:42;;;;;;;11.52;7.30;;;;;;;15.17;70.99;101499.66;10463847;28;20041;-77
2024/03/21 16:26:06;;;;;;;11.88;7.43;;;;;;;14.97;75.38;101498.59;10455821;28;20330;-76
2024/03/21 16:31:29;;;;;;;15.73;9.95;;;;;;;14.93;79.17;101497.69;10436542;28;20041;-76
2024/03/21 16:36:51;;;;;;;9.85;6.70;;;;;;;14.88;81.94;101495.88;10437473;28;20523;-76
2024/03/21 16:42:15;;;;;;;6.45;5.63;;;;;;;14.77;85.40;101498.41;10424309;28;20049;-76
2024/03/21 16:47:38;;;;;;;7.85;4.45;;;;;;;14.70;87.47;101509.88;10449983;28;20037;-76
2024/03/21 16:53:01;;;;;;;6.32;5.15;;;;;;;14.51;89.02;101510.50;10445094;28;20049;-77
2024/03/21 16:59:11;;;;;;;13.75;9.13;;;;;;;14.42;89.63;101497.16;10444451;28;20172;-76
2024/03/21 17:04:54;;;;;;;10.63;7.45;;;;;;;14.40;88.95;101513.06;10266229;28;20054;-77
2024/03/21 17:10:17;;;;;;;9.70;6.65;;;;;;;14.23;88.94;101499.56;10251350;28;20058;-77
2024/03/21 17:16:00;;;;;;;11.13;9.90;;;;;;;14.12;90.55;101509.13;10235151;28;20051;-75
2024/03/21 17:21:37;;;;;;;9.07;7.75;;;;;;;13.97;92.49;101508.94;10238178;28;20050;-79
2024/03/21 17:27:01;;;;;;;9.90;6.82;;;;;;;14.13;91.51;101512.66;10245923;28;20058;-77
2024/03/21 17:32:41;;;;;;;8.45;7.25;;;;;;;14.00;91.86;101503.66;10639360;27;20395;-76
2024/03/21 17:38:03;;;;;;;10.52;8.45;;;;;;;13.93;92.42;101501.78;10592102;28;20075;-77
2024/03/21 17:43:26;;;;;;;8.57;7.43;;;;;;;13.87;93.04;101501.69;10594861;28;20059;-80
2024/03/21 17:48:50;;;;;;;13.68;9.50;;;;;;;13.99;93.56;101501.88;10579955;28;20051;-79
2024/03/21 17:54:12;;;;;;;24.92;19.42;;;;;;;14.11;93.42;101509.13;10592087;28;20051;-77
2024/03/21 17:59:35;;;;;;;21.42;19.25;;;;;;;14.17;94.32;101512.75;10582636;28;20050;-79
2024/03/21 18:04:59;;;;;;;12.73;9.30;;;;;;;13.98;97.32;101514.25;10589337;27;20052;-77
2024/03/21 18:10:22;;;;;;;58.25;49.35;;;;;;;13.94;98.63;101523.06;10607175;28;20453;-78
2024/03/21 18:15:44;;;;;;;10.20;7.13;;;;;;;13.67;100.00;101519.09;10603567;27;20364;-78
2024/03/21 18:21:09;;;;;;;10.02;7.72;;;;;;;13.58;100.00;101517.22;10598394;28;20050;-76
2024/03/21 18:26:31;;;;;;;39.25;28.85;;;;;;;13.46;100.00;101509.03;10591621;27;20549;-75
2024/03/21 18:31:53;;;;;;;19.15;14.60;;;;;;;13.46;100.00;101512.59;10592476;28;20068;-77
2024/03/21 18:37:18;;;;;;;14.85;11.63;;;;;;;13.45;100.00;101507.28;10592621;28;20062;-79
2024/03/21 18:42:40;;;;;;;15.77;11.52;;;;;;;13.30;100.00;101512.31;10586744;28;20043;-79
2024/03/21 18:48:02;;;;;;;15.80;10.63;;;;;;;13.10;100.00;101512.84;10578799;28;20046;-78
2024/03/21 18:53:26;;;;;;;10.70;8.80;;;;;;;13.08;100.00;101503.97;10576802;28;20059;-77
2024/03/21 18:58:56;;;;;;;9.27;7.60;;;;;;;13.08;100.00;101506.63;10578776;28;20049;-78
2024/03/21 19:04:19;;;;;;;11.57;8.20;;;;;;;12.98;100.00;101499.41;10560959;28;20063;-74
2024/03/21 19:09:44;;;;;;;10.77;9.00;;;;;;;12.78;100.00;101501.69;10544263;28;20051;-75
2024/03/21 19:15:07;;;;;;;13.38;9.68;;;;;;;12.51;100.00;101492.31;10548318;28;20620;-76
2024/03/21 19:20:31;;;;;;;9.82;8.05;;;;;;;12.20;100.00;101493.47;10573799;28;20043;-75
2024/03/21 19:25:55;;;;;;;8.07;6.18;;;;;;;12.19;100.00;101492.56;10561222;28;20036;-78
2024/03/21 19:31:19;;;;;;;9.40;6.38;;;;;;;12.33;100.00;101492.84;10574786;28;20073;-80
2024/03/21 19:36:42;;;;;;;8.35;5.95;;;;;;;12.34;100.00;101490.22;10562626;28;20054;-78
2024/03/21 19:42:07;;;;;;;8.48;5.63;;;;;;;12.29;100.00;101493.63;10577634;27;20054;-77
2024/03/21 19:47:29;;;;;;;6.38;5.38;;;;;;;12.42;100.00;101490.38;10567115;28;20084;-76
2024/03/21 19:52:52;;;;;;;10.80;7.75;;;;;;;12.32;100.00;101486.66;10581147;27;20043;-80
2024/03/21 19:58:16;;;;;;;10.35;9.27;;;;;;;12.32;100.00;101496.38;10560364;28;20044;-78
2024/03/21 20:03:39;;;;;;;18.73;9.15;;;;;;;12.19;100.00;101491.69;10575111;28;20499;-77
2024/03/21 20:09:02;;;;;;;11.90;8.13;;;;;;;12.02;100.00;101483.38;10567803;28;20043;-77
2024/03/21 20:14:26;;;;;;;8.05;6.50;;;;;;;12.17;100.00;101482.81;10536647;28;20584;-77
2024/03/21 20:19:52;;;;;;;8.85;5.90;;;;;;;12.13;100.00;101473.03;10571937;28;20050;-77
2024/03/21 20:25:15;;;;;;;8.88;6.93;;;;;;;12.01;100.00;101460.44;10545809;28;20052;-78
2024/03/21 20:30:40;;;;;;;8.27;5.82;;;;;;;12.05;100.00;101464.03;10558373;28;20072;-79
2024/03/21 20:36:04;;;;;;;7.57;6.68;;;;;;;12.04;100.00;101459.59;10574145;28;20089;-79
2024/03/21 20:41:26;;;;;;;10.65;6.10;;;;;;;12.13;100.00;101467.72;10531200;28;20176;-76
2024/03/21 20:46:51;;;;;;;8.30;5.68;;;;;;;12.12;100.00;101455.34;10558001;28;20047;-77
2024/03/21 20:52:14;;;;;;;8.60;7.70;;;;;;;12.08;100.00;101457.03;10572913;28;20561;-78
2024/03/21 20:57:36;;;;;;;11.32;8.30;;;;;;;12.00;100.00;101452.47;10557465;28;20085;-77
2024/03/21 21:03:03;;;;;;;10.25;7.93;;;;;;;11.77;100.00;101447.56;10572074;28;20128;-78
2024/03/21 21:08:25;;;;;;;7.63;6.93;;;;;;;11.64;100.00;101448.13;10557760;28;20051;-77
2024/03/21 21:13:48;;;;;;;9.48;6.22;;;;;;;11.58;100.00;101440.94;10572117;28;20044;-77
2024/03/21 21:19:12;;;;;;;12.43;7.72;;;;;;;11.57;100.00;101443.53;10556998;28;20051;-77
2024/03/21 21:24:35;;;;;;;17.45;10.40;;;;;;;11.66;100.00;101445.50;10557218;28;20060;-77
2024/03/21 21:29:58;;;;;;;42.72;18.63;;;;;;;11.71;100.00;101433.28;10571111;28;20051;-77
2024/03/21 21:35:22;;;;;;;37.05;22.15;;;;;;;11.55;100.00;101434.72;10558732;28;20043;-78
2024/03/21 21:40:53;;;;;;;14.40;10.32;;;;;;;11.45;100.00;101435.34;10558204;28;20051;-78
2024/03/21 21:46:17;;;;;;;9.70;8.70;;;;;;;11.31;100.00;101431.47;10530753;28;20044;-78
2024/03/21 21:51:41;;;;;;;11.65;8.75;;;;;;;11.02;100.00;101429.06;10557611;28;20088;-77
2024/03/21 21:57:03;;;;;;;9.55;8.27;;;;;;;11.11;100.00;101412.50;10558262;28;20479;-78
2024/03/21 22:02:26;;;;;;;11.38;10.20;;;;;;;10.76;100.00;101409.91;10569889;28;20047;-77
2024/03/21 22:07:51;;;;;;;13.95;10.95;;;;;;;10.70;100.00;101412.38;10555465;28;20067;-78
2024/03/21 22:13:13;;;;;;;9.63;7.47;;;;;;;10.56;100.00;101403.25;10571363;28;20048;-77
2024/03/21 22:18:36;;;;;;;11.45;10.30;;;;;;;10.62;100.00;101406.03;10563913;28;20056;-78
2024/03/21 22:24:00;;;;;;;10.13;7.82;;;;;;;10.08;100.00;101418.63;10579677;28;20395;-77
2024/03/21 22:29:23;;;;;;;11.48;7.10;;;;;;;10.03;100.00;101419.34;10565927;28;20048;-78
2024/03/21 22:34:46;;;;;;;7.38;5.82;;;;;;;10.05;100.00;101418.50;10565717;28;20055;-77
2024/03/21 22:40:12;;;;;;;9.60;6.38;;;;;;;10.07;100.00;101410.66;10565400;28;20051;-78
2024/03/21 22:45:35;;;;;;;10.68;8.50;;;;;;;10.19;100.00;101409.28;10551660;28;20047;-77
2024/03/21 22:50:59;;;;;;;9.88;7.95;;;;;;;10.16;100.00;101418.84;10579755;28;20518;-77
2024/03/21 22:56:23;;;;;;;9.93;6.82;;;;;;;10.49;100.00;101403.03;10564547;28;20490;-78
2024/03/21 23:01:46;;;;;;;9.75;6.43;;;;;;;10.11;100.00;101408.13;10564031;28;20051;-77
2024/03/21 23:07:09;;;;;;;8.10;6.22;;;;;;;9.67;100.00;101413.88;10579462;28;20550;-77
2024/03/21 23:12:33;;;;;;;8.77;7.00;;;;;;;9.72;100.00;101407.88;10578174;28;20051;-78
2024/03/21 23:17:55;;;;;;;9.43;6.50;;;;;;;9.82;100.00;101401.16;10578875;28;20051;-77
2024/03/21 23:23:18;;;;;;;14.57;9.77;;;;;;;10.04;100.00;101395.66;10563000;28;20058;-77
2024/03/21 23:28:42;;;;;;;7.85;6.38;;;;;;;10.29;100.00;101386.69;10577226;28;20453;-77
2024/03/21 23:34:04;;;;;;;10.15;6.15;;;;;;;10.42;100.00;101380.88;10577452;28;20088;-77
2024/03/21 23:39:27;;;;;;;7.72;6.10;;;;;;;10.16;100.00;101384.53;10535134;28;20074;-77
2024/03/21 23:44:51;;;;;;;7.75;5.57;;;;;;;9.84;100.00;101391.56;10561504;28;20044;-77
2024/03/21 23:50:14;;;;;;;22.10;16.88;;;;;;;9.71;100.00;101378.88;10535323;28;20044;-77
2024/03/21 23:55:36;;;;;;;8.90;5.70;;;;;;;9.62;100.00;101378.59;10566527;28;20051;-77
